Time;durP1;ratioP1;P1;durP2;ratioP2;P2;SDS_P1;SDS_P2;PMS_P1;PMS_P2;Temp;Humidity;BMP_temperature;BMP_pressure;BME280_temperature;BME280_humidity;BME280_pressure;Samples;Min_cycle;Max_cycle;Signal;HPM_P1;HPM_P2
2022/04/02 00:01:41;;;;;;;13.97;11.67;;;;;;;0.43;75.01;96201.97;6179282;28;20256;-79
2022/04/02 00:04:44;;;;;;;13.90;10.73;;;;;;;0.47;75.22;96207.81;6162973;28;21005;-79
2022/04/02 00:07:46;;;;;;;15.43;10.57;;;;;;;0.43;74.60;96204.56;6163963;28;20228;-79
2022/04/02 00:10:48;;;;;;;13.50;10.20;;;;;;;0.48;74.93;96205.13;6179316;28;20229;-79
2022/04/02 00:13:51;;;;;;;13.20;10.40;;;;;;;0.51;74.99;96194.53;6177341;28;20232;-79
2022/04/02 00:16:53;;;;;;;12.23;10.57;;;;;;;0.51;75.17;96197.13;6179080;28;20228;-80
2022/04/02 00:19:55;;;;;;;12.13;10.53;;;;;;;0.51;75.36;96199.72;6177001;28;20236;-79
2022/04/02 00:26:20;;;;;;;12.17;10.57;;;;;;;0.47;74.29;96200.03;6170067;28;20629;-79
2022/04/02 00:29:23;;;;;;;14.53;11.37;;;;;;;0.42;75.00;96194.28;6156973;28;20237;-79
2022/04/02 00:32:25;;;;;;;16.07;11.53;;;;;;;0.42;74.95;96194.28;6177024;28;20233;-79
2022/04/02 00:35:28;;;;;;;13.50;10.70;;;;;;;0.43;75.28;96199.38;6179829;28;20229;-79
2022/04/02 00:38:31;;;;;;;12.87;10.97;;;;;;;0.48;75.67;96205.13;6162793;28;20224;-80
2022/04/02 00:41:34;;;;;;;13.53;11.63;;;;;;;0.47;75.31;96200.88;6180071;28;20608;-79
2022/04/02 00:44:37;;;;;;;17.90;11.90;;;;;;;0.41;75.33;96200.41;6162959;28;20235;-79
2022/04/02 00:47:39;;;;;;;15.13;11.63;;;;;;;0.42;75.80;96191.69;6163617;28;20229;-79
2022/04/02 00:50:44;;;;;;;14.97;11.97;;;;;;;0.37;76.06;96192.00;6177496;28;20692;-82
2022/04/02 00:53:51;;;;;;;18.47;13.27;;;;;;;0.32;75.82;96197.47;6162995;28;20252;-80
2022/04/02 00:56:54;;;;;;;14.70;11.80;;;;;;;0.27;75.59;96193.53;6163912;28;20575;-80
2022/04/02 00:59:56;;;;;;;14.00;11.43;;;;;;;0.30;75.81;96201.91;6179092;28;20239;-80
2022/04/02 01:02:59;;;;;;;17.50;12.60;;;;;;;0.37;75.82;96192.00;6178332;28;20708;-80
2022/04/02 01:06:03;;;;;;;17.13;13.07;;;;;;;0.38;75.23;96195.44;6138079;28;20229;-80
2022/04/02 01:09:10;;;;;;;16.47;13.50;;;;;;;0.40;75.71;96191.00;6179994;28;20213;-80
2022/04/02 01:12:14;;;;;;;16.03;13.13;;;;;;;0.39;75.73;96186.72;6179450;28;20205;-80
2022/04/02 01:15:18;;;;;;;18.17;13.27;;;;;;;0.35;75.96;96181.72;6178285;28;20236;-80
2022/04/02 01:18:25;;;;;;;17.33;13.00;;;;;;;0.35;75.57;96181.72;6183252;28;20233;-80
2022/04/02 01:21:29;;;;;;;16.77;13.50;;;;;;;0.33;75.86;96175.78;6185034;28;20388;-80
2022/04/02 01:24:36;;;;;;;17.50;13.70;;;;;;;0.37;75.77;96176.44;6168006;28;20609;-80
2022/04/02 01:27:38;;;;;;;17.90;13.53;;;;;;;0.41;76.01;96190.03;6166479;28;20228;-80
2022/04/02 01:30:40;;;;;;;20.47;13.93;;;;;;;0.43;75.75;96185.59;6183346;28;20250;-80
2022/04/02 01:33:43;;;;;;;18.50;14.50;;;;;;;0.40;76.17;96184.00;6167813;28;20224;-80
2022/04/02 01:36:45;;;;;;;17.57;14.63;;;;;;;0.41;75.81;96184.84;6183539;28;20233;-81
2022/04/02 01:39:57;;;;;;;20.50;16.10;;;;;;;0.38;76.04;96187.66;6163001;28;20222;-80
2022/04/02 01:43:08;;;;;;;21.87;14.73;;;;;;;0.36;75.78;96191.19;6167517;28;20312;-80
2022/04/02 01:46:18;;;;;;;19.73;15.43;;;;;;;0.36;76.37;96200.72;6144739;28;20238;-80
2022/04/02 01:49:26;;;;;;;18.40;15.10;;;;;;;0.36;76.57;96195.53;6165460;28;20316;-81
2022/04/02 01:52:29;;;;;;;17.80;14.63;;;;;;;0.37;76.26;96192.00;6182274;28;20244;-80
2022/04/02 01:55:32;;;;;;;20.77;15.00;;;;;;;0.38;76.19;96196.28;6166321;28;20237;-81
2022/04/02 01:58:49;;;;;;;18.63;14.93;;;;;;;0.41;76.27;96192.63;6134770;28;20234;-80
2022/04/02 02:01:56;;;;;;;21.63;15.90;;;;;;;0.41;76.09;96190.88;6158665;28;20248;-80
2022/04/02 02:04:58;;;;;;;20.17;14.63;;;;;;;0.38;75.83;96192.84;6149531;28;20238;-80
2022/04/02 02:08:01;;;;;;;17.47;14.20;;;;;;;0.39;75.83;96191.91;6158607;28;20234;-80
2022/04/02 02:11:18;;;;;;;20.53;15.37;;;;;;;0.35;76.35;96188.66;6159451;28;20237;-80
2022/04/02 02:14:46;;;;;;;19.07;14.63;;;;;;;0.35;75.53;96197.28;6159753;28;20245;-80
2022/04/02 02:17:51;;;;;;;17.87;13.27;;;;;;;0.34;75.86;96203.41;6167997;28;20240;-80
2022/04/02 02:20:53;;;;;;;21.80;14.87;;;;;;;0.33;76.02;96193.13;6182307;28;20701;-81
2022/04/02 02:23:56;;;;;;;18.90;15.00;;;;;;;0.32;76.68;96194.88;6182004;28;20599;-80
2022/04/02 02:26:59;;;;;;;17.00;14.27;;;;;;;0.31;76.89;96187.19;6166319;28;20229;-81
2022/04/02 02:30:06;;;;;;;21.80;14.70;;;;;;;0.31;76.58;96182.84;6158324;28;20749;-81
2022/04/02 02:36:29;;;;;;;18.57;14.47;;;;;;;0.35;76.50;96192.09;6174102;28;20230;-80
2022/04/02 02:39:43;;;;;;;17.90;13.37;;;;;;;0.35;75.93;96199.06;6174187;28;20233;-81
2022/04/02 02:42:53;;;;;;;19.53;13.37;;;;;;;0.35;76.14;96206.84;6159272;28;20230;-80
2022/04/02 02:46:01;;;;;;;19.10;13.50;;;;;;;0.35;76.25;96191.25;6157540;28;20240;-80
2022/04/02 02:49:05;;;;;;;18.33;13.37;;;;;;;0.37;76.19;96197.19;6180527;28;20592;-80
2022/04/02 02:52:07;;;;;;;19.40;14.60;;;;;;;0.36;76.29;96193.78;6165761;28;20233;-80
2022/04/02 02:55:10;;;;;;;17.50;13.33;;;;;;;0.36;76.17;96187.75;6181523;28;20237;-80
2022/04/02 02:58:13;;;;;;;16.33;13.37;;;;;;;0.34;76.44;96194.78;6184506;28;20240;-80
2022/04/02 03:01:16;;;;;;;17.53;13.50;;;;;;;0.33;75.85;96195.72;6183175;28;20435;-80
2022/04/02 03:04:21;;;;;;;16.50;13.13;;;;;;;0.37;76.14;96202.38;6166740;28;20241;-80
2022/04/02 03:07:28;;;;;;;17.57;13.30;;;;;;;0.42;75.94;96208.09;6170564;28;20268;-80
2022/04/02 03:10:31;;;;;;;16.50;12.00;;;;;;;0.44;75.48;96210.59;6181662;28;20803;-80
2022/04/02 03:13:33;;;;;;;19.53;12.73;;;;;;;0.44;75.34;96211.44;6165596;28;20227;-80
2022/04/02 03:16:41;;;;;;;15.90;12.07;;;;;;;0.46;75.37;96212.19;6165043;28;20244;-80
2022/04/02 03:19:48;;;;;;;16.20;13.20;;;;;;;0.45;75.16;96218.28;6160481;28;20233;-80
2022/04/02 03:22:51;;;;;;;19.40;12.87;;;;;;;0.48;75.74;96219.88;6165579;28;20233;-80
2022/04/02 03:25:55;;;;;;;17.73;11.77;;;;;;;0.47;75.74;96218.19;6185289;28;20799;-81
2022/04/02 03:28:58;;;;;;;16.40;12.03;;;;;;;0.45;75.52;96220.88;6183524;28;20232;-80
2022/04/02 03:32:02;;;;;;;16.23;12.17;;;;;;;0.47;75.17;96234.59;6181053;28;20328;-80
2022/04/02 03:35:09;;;;;;;16.07;12.10;;;;;;;0.45;75.50;96226.06;6179659;28;20233;-81
2022/04/02 03:38:11;;;;;;;20.37;11.93;;;;;;;0.44;75.11;96232.19;6156208;28;20321;-80
2022/04/02 03:41:16;;;;;;;15.07;12.23;;;;;;;0.43;75.20;96221.91;6155896;28;20237;-80
2022/04/02 03:44:23;;;;;;;18.80;12.97;;;;;;;0.39;75.23;96223.88;6142371;28;20233;-80
2022/04/02 03:47:25;;;;;;;18.77;13.10;;;;;;;0.38;75.58;96221.38;6179889;28;20601;-80
2022/04/02 03:50:28;;;;;;;18.37;12.37;;;;;;;0.35;75.24;96219.81;6180900;28;20276;-80
2022/04/02 03:53:32;;;;;;;20.30;10.83;;;;;;;0.39;75.20;96236.03;6180106;28;20728;-80
2022/04/02 03:56:36;;;;;;;15.80;12.00;;;;;;;0.41;75.33;96234.13;6169129;28;20222;-80
2022/04/02 03:59:44;;;;;;;13.27;10.83;;;;;;;0.35;75.24;96231.03;6165362;28;20320;-80
2022/04/02 04:02:50;;;;;;;20.10;11.97;;;;;;;0.33;74.80;96239.81;6179396;28;20255;-81
2022/04/02 04:06:00;;;;;;;15.77;10.73;;;;;;;0.28;75.08;96237.53;6178704;28;20589;-80
2022/04/02 04:09:04;;;;;;;16.37;11.00;;;;;;;0.29;75.25;96243.56;6155544;28;20681;-80
2022/04/02 04:12:08;;;;;;;16.80;11.00;;;;;;;0.30;75.34;96250.41;6163643;28;20206;-80
2022/04/02 04:15:13;;;;;;;14.30;10.33;;;;;;;0.27;75.37;96241.06;6179347;28;20303;-80
2022/04/02 04:18:16;;;;;;;16.97;11.20;;;;;;;0.28;75.73;96244.47;6179120;28;20220;-80
2022/04/02 04:21:19;;;;;;;15.43;10.03;;;;;;;0.27;75.08;96245.41;6155731;28;20226;-80
2022/04/02 04:24:24;;;;;;;17.20;11.63;;;;;;;0.26;74.38;96238.56;6187203;28;20237;-80
2022/04/02 04:27:27;;;;;;;15.73;10.40;;;;;;;0.28;74.92;96252.25;6162093;28;20320;-80
2022/04/02 04:30:30;;;;;;;14.33;10.93;;;;;;;0.26;74.96;96252.34;6180642;28;20582;-80
2022/04/02 04:33:35;;;;;;;13.83;10.10;;;;;;;0.25;75.40;96248.09;6177777;28;20225;-80
2022/04/02 04:36:37;;;;;;;16.60;9.97;;;;;;;0.25;74.88;96260.22;6179219;28;20249;-81
2022/04/02 04:39:39;;;;;;;17.77;10.37;;;;;;;0.27;74.86;96259.22;6162873;28;20262;-80
2022/04/02 04:42:43;;;;;;;12.20;9.97;;;;;;;0.29;74.42;96251.34;6178796;28;20588;-81
2022/04/02 04:45:48;;;;;;;16.37;9.87;;;;;;;0.31;74.12;96254.66;6155645;28;20309;-80
2022/04/02 04:48:53;;;;;;;14.40;9.93;;;;;;;0.32;74.35;96253.72;6175756;28;20229;-81
2022/04/02 04:51:57;;;;;;;12.67;9.20;;;;;;;0.34;74.46;96255.28;6162116;28;20255;-80
2022/04/02 04:55:01;;;;;;;17.37;10.20;;;;;;;0.35;74.10;96246.59;6179281;28;20237;-81
2022/04/02 04:58:05;;;;;;;14.37;10.03;;;;;;;0.39;74.34;96252.44;6162282;28;20238;-81
2022/04/02 05:01:11;;;;;;;16.83;10.10;;;;;;;0.36;74.12;96253.44;6178201;28;20479;-81
2022/04/02 05:04:13;;;;;;;16.27;10.23;;;;;;;0.36;73.87;96256.03;6175077;28;20678;-80
2022/04/02 05:07:20;;;;;;;18.10;10.37;;;;;;;0.35;73.33;96256.97;6173771;28;20233;-80
2022/04/02 05:10:28;;;;;;;13.23;10.70;;;;;;;0.35;73.82;96251.78;6157930;28;20217;-80
2022/04/02 05:13:32;;;;;;;20.83;10.80;;;;;;;0.36;73.04;96255.22;6168112;28;20853;-80
2022/04/02 05:16:35;;;;;;;12.97;10.07;;;;;;;0.39;73.93;96255.03;6159677;28;20735;-80
2022/04/02 05:19:43;;;;;;;13.07;9.93;;;;;;;0.35;72.94;96262.16;6178574;28;20844;-81
2022/04/02 05:22:46;;;;;;;14.40;10.40;;;;;;;0.40;73.06;96271.44;6179283;28;20268;-80
2022/04/02 05:25:48;;;;;;;17.83;9.33;;;;;;;0.40;72.90;96264.44;6162030;28;20237;-80
2022/04/02 05:28:54;;;;;;;15.83;9.57;;;;;;;0.41;72.99;96271.31;6162900;28;20233;-81
2022/04/02 05:31:56;;;;;;;13.37;10.37;;;;;;;0.44;73.99;96265.09;6179317;28;20236;-81
2022/04/02 05:34:58;;;;;;;17.57;10.50;;;;;;;0.45;72.91;96270.19;6179872;28;20221;-80
2022/04/02 05:38:01;;;;;;;13.17;9.20;;;;;;;0.52;72.99;96268.03;6179630;28;20232;-80
2022/04/02 05:41:04;;;;;;;14.47;11.00;;;;;;;0.55;73.03;96268.69;6169181;28;20229;-81
2022/04/02 05:44:07;;;;;;;14.67;10.43;;;;;;;0.53;72.22;96280.09;6180329;28;20280;-80
2022/04/02 05:47:09;;;;;;;18.67;9.63;;;;;;;0.53;71.95;96274.91;6179376;28;20328;-81
2022/04/02 05:50:20;;;;;;;13.70;9.27;;;;;;;0.58;71.96;96270.25;6170926;28;20236;-81
2022/04/02 05:53:38;;;;;;;14.63;9.93;;;;;;;0.64;72.95;96267.25;6171451;28;20240;-81
2022/04/02 05:56:40;;;;;;;15.97;9.90;;;;;;;0.63;71.62;96270.78;6179850;28;20593;-82
2022/04/02 05:59:42;;;;;;;11.73;9.53;;;;;;;0.69;71.44;96281.63;6173511;28;20943;-81
2022/04/02 06:02:45;;;;;;;14.40;10.10;;;;;;;0.74;72.01;96273.53;6155495;28;20237;-81
2022/04/02 06:05:49;;;;;;;15.30;9.23;;;;;;;0.77;71.18;96267.31;6166383;28;20251;-80
2022/04/02 06:08:51;;;;;;;15.63;9.83;;;;;;;0.81;71.65;96273.97;6174592;28;20610;-80
2022/04/02 06:11:58;;;;;;;16.37;10.17;;;;;;;0.83;71.22;96279.91;6167722;28;20233;-80
2022/04/02 06:15:00;;;;;;;13.13;9.40;;;;;;;0.87;71.17;96279.63;6179481;28;20221;-81
2022/04/02 06:18:03;;;;;;;15.03;9.63;;;;;;;0.92;70.98;96280.16;6165436;28;20820;-80
2022/04/02 06:21:05;;;;;;;15.20;9.73;;;;;;;0.97;71.49;96278.09;6171400;28;20538;-81
2022/04/02 06:24:07;;;;;;;13.90;8.53;;;;;;;0.99;71.39;96286.63;6195538;28;20543;-80
2022/04/02 06:27:09;;;;;;;21.63;10.50;;;;;;;0.96;71.37;96293.78;6179192;28;20201;-80
2022/04/02 06:30:13;;;;;;;13.70;9.70;;;;;;;0.94;71.28;96299.06;6180850;28;20221;-80
2022/04/02 06:33:15;;;;;;;12.80;9.23;;;;;;;0.91;70.92;96291.47;6181877;28;20707;-81
2022/04/02 06:36:19;;;;;;;19.67;10.40;;;;;;;0.95;71.03;96297.31;6160550;28;20207;-80
2022/04/02 06:39:22;;;;;;;12.33;9.20;;;;;;;0.97;69.98;96293.69;6181452;28;20634;-80
2022/04/02 06:42:24;;;;;;;19.57;9.53;;;;;;;0.96;71.07;96304.16;6180321;28;20228;-80
2022/04/02 06:45:27;;;;;;;14.33;8.87;;;;;;;0.97;69.91;96311.03;6178283;28;20244;-80
2022/04/02 06:48:30;;;;;;;12.97;8.40;;;;;;;0.83;69.50;96308.47;6158389;28;20272;-81
2022/04/02 06:51:33;;;;;;;20.83;9.67;;;;;;;0.84;69.16;96304.94;6164463;28;20237;-80
2022/04/02 06:54:35;;;;;;;15.33;8.73;;;;;;;0.75;68.60;96311.56;6165507;28;20222;-81
2022/04/02 06:57:48;;;;;;;14.67;9.07;;;;;;;0.77;69.06;96312.31;6157401;28;20217;-81
2022/04/02 07:00:50;;;;;;;16.07;9.93;;;;;;;0.91;68.37;96312.22;6161863;28;20232;-81
2022/04/02 07:03:53;;;;;;;12.83;9.23;;;;;;;0.95;68.07;96312.88;6160553;28;20235;-81
2022/04/02 07:06:55;;;;;;;14.27;9.50;;;;;;;0.96;67.44;96323.19;6178955;28;20289;-81
2022/04/02 07:09:58;;;;;;;14.57;9.10;;;;;;;0.96;68.09;96320.59;6174884;28;20233;-81
2022/04/02 07:13:00;;;;;;;11.13;8.80;;;;;;;1.10;67.77;96322.28;6178415;28;20225;-81
2022/04/02 07:16:02;;;;;;;13.97;9.30;;;;;;;1.09;66.70;96328.44;6177638;28;20237;-80
2022/04/02 07:19:06;;;;;;;15.03;9.10;;;;;;;1.11;67.15;96327.38;6176956;28;20225;-81
2022/04/02 07:22:09;;;;;;;14.10;9.00;;;;;;;1.25;67.23;96333.47;6158605;28;20318;-80
2022/04/02 07:25:13;;;;;;;13.87;9.00;;;;;;;1.28;66.12;96341.06;6162163;28;20241;-81
2022/04/02 07:28:19;;;;;;;12.20;9.63;;;;;;;1.35;66.89;96331.94;6174524;28;20257;-81
2022/04/02 07:31:21;;;;;;;13.57;9.03;;;;;;;1.42;66.64;96335.78;6177844;28;20233;-81
2022/04/02 07:34:23;;;;;;;13.47;9.10;;;;;;;1.31;66.63;96346.88;6177932;28;20233;-80
2022/04/02 07:37:25;;;;;;;15.33;10.17;;;;;;;1.49;66.18;96337.06;6177807;28;20241;-82
2022/04/02 07:40:40;;;;;;;12.37;9.30;;;;;;;1.55;65.71;96347.06;6179580;28;20725;-80
2022/04/02 07:44:11;;;;;;;19.20;9.07;;;;;;;1.39;65.77;96349.00;6178407;28;20233;-80
2022/04/02 07:47:15;;;;;;;11.70;9.47;;;;;;;1.46;65.17;96348.50;6175267;28;20664;-81
2022/04/02 07:50:17;;;;;;;18.70;9.60;;;;;;;1.52;65.20;96355.03;6163803;28;20247;-81
2022/04/02 07:53:24;;;;;;;12.50;9.03;;;;;;;1.57;65.68;96354.75;6167443;28;20254;-80
2022/04/02 07:56:36;;;;;;;14.57;9.63;;;;;;;1.74;64.79;96359.66;6179141;28;20232;-81
2022/04/02 07:59:42;;;;;;;15.70;9.30;;;;;;;1.89;64.55;96355.22;6167423;28;20229;-81
2022/04/02 08:02:48;;;;;;;14.70;9.30;;;;;;;1.94;64.15;96361.78;6162154;28;20255;-81
2022/04/02 08:05:57;;;;;;;10.93;9.10;;;;;;;2.13;63.83;96363.97;6176660;28;20600;-81
2022/04/02 08:09:00;;;;;;;14.97;9.23;;;;;;;2.31;63.44;96367.91;6176917;28;20221;-81
2022/04/02 08:12:11;;;;;;;19.10;9.67;;;;;;;2.50;63.14;96370.06;6139279;28;20713;-81
2022/04/02 08:15:17;;;;;;;12.80;9.20;;;;;;;2.65;62.48;96368.19;6159846;28;20232;-81
2022/04/02 08:18:23;;;;;;;16.43;9.00;;;;;;;2.52;61.11;96373.41;6160811;28;20420;-81
2022/04/02 08:21:25;;;;;;;11.73;9.40;;;;;;;2.47;62.38;96370.31;6157185;28;20237;-82
2022/04/02 08:24:27;;;;;;;15.87;9.43;;;;;;;2.83;61.86;96365.13;6179448;28;20240;-81
2022/04/02 08:27:48;;;;;;;10.83;8.87;;;;;;;2.92;61.03;96376.66;6179336;28;20251;-83
2022/04/02 08:31:20;;;;;;;15.30;9.10;;;;;;;2.84;61.37;96382.41;6179758;28;20236;-83
2022/04/02 08:34:34;;;;;;;11.40;9.07;;;;;;;2.85;61.23;96380.66;6177265;28;20233;-82
2022/04/02 08:37:36;;;;;;;14.50;10.53;;;;;;;2.79;61.90;96388.91;6177852;28;20608;-82
2022/04/02 08:41:12;;;;;;;15.90;9.17;;;;;;;2.71;61.13;96385.97;6177739;28;20240;-82
2022/04/02 08:44:17;;;;;;;14.47;8.60;;;;;;;3.07;61.65;96383.41;6178994;28;20262;-82
2022/04/02 08:48:02;;;;;;;11.20;8.50;;;;;;;3.11;60.62;96386.59;6178021;28;20708;-82
2022/04/02 08:51:41;;;;;;;12.77;7.93;;;;;;;2.84;59.76;96389.41;6159475;28;20230;-82
2022/04/02 08:55:13;;;;;;;14.33;9.33;;;;;;;2.75;60.84;96393.50;6175063;28;20256;-83
2022/04/02 08:58:18;;;;;;;12.10;9.17;;;;;;;2.85;61.97;96406.69;6175317;28;20229;-82
2022/04/02 09:01:27;;;;;;;14.30;8.50;;;;;;;2.91;60.06;96406.25;6159451;28;20744;-82
2022/04/02 09:04:48;;;;;;;12.13;8.73;;;;;;;2.68;60.06;96413.09;6151124;28;20618;-82
2022/04/02 09:08:11;;;;;;;17.20;8.40;;;;;;;2.75;61.48;96416.09;6134914;28;20550;-82
2022/04/02 09:11:26;;;;;;;12.67;8.60;;;;;;;2.54;60.57;96413.19;6158329;28;20244;-82
2022/04/02 09:15:07;;;;;;;14.47;8.67;;;;;;;2.64;61.31;96414.22;6159424;28;20722;-82
2022/04/02 09:18:15;;;;;;;14.20;9.33;;;;;;;2.73;61.27;96412.75;6150277;28;20221;-82
2022/04/02 09:21:29;;;;;;;15.73;8.53;;;;;;;2.86;59.87;96418.78;6142043;28;20228;-82
2022/04/02 09:24:44;;;;;;;12.87;8.67;;;;;;;3.01;58.81;96427.28;6175388;28;20881;-82
2022/04/02 09:28:16;;;;;;;13.60;8.87;;;;;;;2.99;59.84;96414.41;6137967;28;20230;-82
2022/04/02 09:31:44;;;;;;;15.60;8.60;;;;;;;3.02;58.60;96424.59;6169744;28;20233;-82
2022/04/02 09:35:04;;;;;;;16.30;8.60;;;;;;;3.20;59.34;96418.06;6178210;28;20237;-82
2022/04/02 09:38:22;;;;;;;13.83;7.97;;;;;;;3.34;58.57;96417.94;6178738;28;20229;-82
2022/04/02 09:41:50;;;;;;;9.00;7.37;;;;;;;3.53;58.92;96412.22;6155215;28;20237;-82
2022/04/02 09:45:03;;;;;;;12.77;8.00;;;;;;;3.80;57.02;96421.56;6146536;28;20237;-82
2022/04/02 09:48:08;;;;;;;15.23;8.07;;;;;;;3.99;57.84;96433.16;6179185;28;20599;-81
2022/04/02 09:51:14;;;;;;;12.93;8.43;;;;;;;3.89;56.38;96429.59;6181417;28;20212;-81
2022/04/02 09:54:53;;;;;;;13.93;8.27;;;;;;;3.78;57.41;96439.97;6182521;28;20776;-82
2022/04/02 09:58:22;;;;;;;14.77;8.30;;;;;;;3.69;57.23;96427.59;6182570;28;20228;-81
2022/04/02 10:01:40;;;;;;;13.57;7.33;;;;;;;3.69;57.10;96432.81;6181102;28;20223;-81
2022/04/02 10:04:52;;;;;;;11.90;8.23;;;;;;;3.76;57.76;96428.81;6165063;28;20265;-82
2022/04/02 10:08:19;;;;;;;13.67;8.70;;;;;;;4.33;57.31;96421.03;6175022;28;20771;-82
2022/04/02 10:11:27;;;;;;;13.50;8.57;;;;;;;4.11;55.88;96415.75;6160219;28;20228;-81
2022/04/02 10:14:33;;;;;;;13.07;8.23;;;;;;;4.16;55.57;96431.09;6199210;28;20232;-82
2022/04/02 10:17:39;;;;;;;12.63;7.73;;;;;;;4.19;56.34;96431.69;6184583;28;20269;-82
2022/04/02 10:20:45;;;;;;;12.20;8.37;;;;;;;4.27;55.58;96439.78;6183865;28;20260;-82
2022/04/02 10:23:52;;;;;;;13.67;9.20;;;;;;;3.91;55.36;96438.09;6165423;28;20241;-81
2022/04/02 10:26:57;;;;;;;18.97;8.90;;;;;;;3.64;57.77;96447.94;6165617;28;20249;-82
2022/04/02 10:30:11;;;;;;;14.20;8.50;;;;;;;3.27;57.54;96450.59;6181179;28;20604;-81
2022/04/02 10:33:26;;;;;;;15.43;8.10;;;;;;;3.09;59.22;96446.69;6157982;28;20237;-82
2022/04/02 10:36:28;;;;;;;14.47;8.77;;;;;;;2.96;58.85;96454.53;6181761;28;20221;-82
2022/04/02 10:39:34;;;;;;;12.57;8.97;;;;;;;3.20;59.78;96443.28;6181675;28;20248;-82
2022/04/02 10:42:39;;;;;;;14.43;8.30;;;;;;;3.59;58.36;96458.72;6180769;28;20227;-82
2022/04/02 10:45:41;;;;;;;15.00;8.23;;;;;;;3.59;58.40;96456.09;6164409;28;20558;-82
2022/04/02 10:48:58;;;;;;;12.43;8.53;;;;;;;3.69;57.63;96456.28;6180460;28;20250;-81
2022/04/02 10:52:02;;;;;;;15.00;8.10;;;;;;;3.73;56.87;96460.34;6165261;28;20221;-82
2022/04/02 10:55:05;;;;;;;9.93;7.30;;;;;;;3.81;57.42;96465.81;6155981;28;20640;-82
2022/04/02 10:58:10;;;;;;;17.63;7.60;;;;;;;3.59;57.44;96471.75;6163871;28;20748;-82
2022/04/02 11:01:17;;;;;;;16.73;7.90;;;;;;;3.25;57.65;96475.09;6180688;28;20231;-82
2022/04/02 11:04:30;;;;;;;13.97;7.83;;;;;;;2.94;58.90;96474.63;6164021;28;20233;-82
2022/04/02 11:07:43;;;;;;;12.87;8.20;;;;;;;2.94;58.43;96474.63;6178573;28;20257;-82
2022/04/02 11:10:49;;;;;;;14.17;8.77;;;;;;;3.13;59.15;96482.00;6163780;28;20248;-82
2022/04/02 11:13:52;;;;;;;14.43;8.57;;;;;;;3.25;59.16;96475.94;6181182;28;20235;-82
2022/04/02 11:16:54;;;;;;;14.00;7.70;;;;;;;3.28;58.28;96487.94;6178856;28;20224;-82
2022/04/02 11:20:08;;;;;;;15.30;8.43;;;;;;;3.50;57.85;96485.44;6180161;28;20221;-82
2022/04/02 11:23:20;;;;;;;12.50;7.93;;;;;;;3.59;57.20;96484.00;6165569;28;20683;-82
2022/04/02 11:26:27;;;;;;;13.37;7.10;;;;;;;3.82;57.23;96488.38;6176619;28;20606;-82
2022/04/02 11:29:33;;;;;;;13.20;7.67;;;;;;;3.61;57.43;96485.53;6164579;28;20226;-82
2022/04/02 11:32:46;;;;;;;18.23;8.20;;;;;;;3.55;56.51;96492.97;6164838;28;20242;-82
2022/04/02 11:35:55;;;;;;;18.77;7.43;;;;;;;3.55;56.77;96490.34;6179660;28;20397;-82
2022/04/02 11:39:01;;;;;;;10.23;6.77;;;;;;;3.88;56.47;96485.31;6163752;28;20241;-82
2022/04/02 11:42:07;;;;;;;15.77;7.43;;;;;;;3.94;55.29;96492.69;6179151;28;20227;-82
2022/04/02 11:45:11;;;;;;;9.47;7.00;;;;;;;4.09;55.85;96488.16;6179061;28;20207;-82
2022/04/02 11:48:18;;;;;;;14.90;7.40;;;;;;;4.11;55.49;96496.69;6180695;28;20578;-82
2022/04/02 11:51:22;;;;;;;10.07;7.10;;;;;;;4.29;54.50;96492.69;6156909;28;20234;-82
2022/04/02 11:54:25;;;;;;;11.27;7.40;;;;;;;4.20;54.47;96488.16;6169947;28;20590;-82
2022/04/02 11:57:27;;;;;;;16.03;7.97;;;;;;;3.95;54.73;96488.31;6172962;28;20225;-82
2022/04/02 12:00:32;;;;;;;12.33;6.93;;;;;;;3.98;55.12;96496.75;6169544;28;20752;-83
2022/04/02 12:03:34;;;;;;;15.00;8.13;;;;;;;4.13;54.57;96489.56;6185862;28;20227;-81
2022/04/02 12:06:38;;;;;;;13.80;7.87;;;;;;;4.27;54.61;96491.16;6175123;28;20230;-82
2022/04/02 12:09:52;;;;;;;14.27;6.93;;;;;;;4.30;54.40;96488.31;6163325;28;20226;-82
2022/04/02 12:12:58;;;;;;;12.97;7.47;;;;;;;4.37;54.50;96505.22;6150880;28;20232;-82
2022/04/02 12:16:09;;;;;;;11.70;7.80;;;;;;;4.43;54.34;96502.97;6175255;28;20719;-82
2022/04/02 12:19:12;;;;;;;12.83;6.67;;;;;;;4.48;54.38;96514.88;6177415;28;20654;-82
2022/04/02 12:22:30;;;;;;;10.93;7.07;;;;;;;4.23;54.82;96506.22;6177748;28;20254;-82
2022/04/02 12:25:33;;;;;;;14.43;7.30;;;;;;;3.99;55.47;96514.06;6176232;28;20246;-82
2022/04/02 12:28:45;;;;;;;13.90;7.33;;;;;;;3.85;55.99;96516.03;6162370;28;20233;-82
2022/04/02 12:31:51;;;;;;;13.77;7.37;;;;;;;3.83;56.97;96518.72;6177437;28;20399;-82
2022/04/02 12:35:24;;;;;;;10.63;6.90;;;;;;;3.76;57.87;96520.13;6178893;28;20244;-82
2022/04/02 12:38:32;;;;;;;11.07;7.53;;;;;;;3.74;59.67;96510.72;6166235;28;20250;-82
2022/04/02 12:41:48;;;;;;;14.07;8.03;;;;;;;3.43;60.47;96515.53;6176713;28;20230;-82
2022/04/02 12:45:09;;;;;;;15.27;8.13;;;;;;;3.32;62.25;96528.47;6180029;28;20543;-81
2022/04/02 12:48:20;;;;;;;11.83;7.93;;;;;;;3.54;63.30;96523.44;6157287;28;20234;-82
2022/04/02 12:51:25;;;;;;;12.03;8.20;;;;;;;3.71;63.92;96528.28;6179907;28;20300;-82
2022/04/02 12:54:32;;;;;;;16.57;7.97;;;;;;;3.81;64.42;96525.00;6179458;28;20235;-82
2022/04/02 12:57:35;;;;;;;11.87;8.60;;;;;;;3.89;64.02;96531.34;6158284;28;20238;-82
2022/04/02 13:00:43;;;;;;;10.77;7.67;;;;;;;4.11;65.06;96527.16;6159437;28;20303;-82
2022/04/02 13:03:53;;;;;;;10.93;8.27;;;;;;;4.18;64.11;96534.47;6162056;28;20241;-82
2022/04/02 13:06:59;;;;;;;12.27;8.10;;;;;;;4.08;63.73;96538.69;6177955;28;20288;-82
2022/04/02 13:10:07;;;;;;;11.23;8.40;;;;;;;3.67;64.21;96539.88;6178648;28;20236;-82
2022/04/02 13:13:13;;;;;;;12.07;8.33;;;;;;;3.50;64.92;96539.38;6184665;28;20392;-82
2022/04/02 13:16:18;;;;;;;12.10;8.30;;;;;;;3.39;66.04;96550.59;6189949;28;20288;-82
2022/04/02 13:22:56;;;;;;;10.50;8.70;;;;;;;3.08;67.53;96561.47;6184957;28;20245;-82
2022/04/02 13:26:04;;;;;;;10.60;9.00;;;;;;;3.31;67.71;96560.69;6186503;28;20221;-81
2022/04/02 13:29:27;;;;;;;12.23;8.23;;;;;;;3.26;65.38;96565.41;6186521;28;20610;-81
2022/04/02 13:33:18;;;;;;;12.23;8.50;;;;;;;3.28;67.20;96553.94;6187149;28;20714;-82
2022/04/02 13:36:26;;;;;;;12.60;8.63;;;;;;;3.23;65.89;96565.63;6147699;28;20596;-82
2022/04/02 13:39:34;;;;;;;11.80;9.17;;;;;;;3.00;67.06;96563.75;6189169;28;20576;-81
2022/04/02 13:42:56;;;;;;;12.07;9.30;;;;;;;2.87;66.50;96563.75;6186499;28;20224;-82
2022/04/02 13:46:03;;;;;;;11.17;8.33;;;;;;;2.89;67.54;96560.13;6187041;28;20233;-81
2022/04/02 13:49:08;;;;;;;10.30;8.47;;;;;;;2.81;67.42;96565.00;6168999;28;20733;-82
2022/04/02 13:52:20;;;;;;;10.67;8.37;;;;;;;2.70;68.37;96570.09;6163271;28;20227;-82
2022/04/02 13:55:28;;;;;;;12.70;8.63;;;;;;;2.38;68.03;96577.44;6156217;28;20236;-82
2022/04/02 13:58:34;;;;;;;13.47;9.93;;;;;;;2.46;69.08;96582.13;6185778;28;20233;-81
2022/04/02 14:01:52;;;;;;;14.30;9.70;;;;;;;2.35;69.96;96588.03;6192672;28;20230;-81
2022/04/02 14:05:03;;;;;;;14.67;9.93;;;;;;;2.15;70.03;96581.53;6184530;28;20233;-81
2022/04/02 14:08:08;;;;;;;13.77;10.57;;;;;;;1.97;70.15;96587.06;6185080;28;20296;-81
2022/04/02 14:11:21;;;;;;;13.40;10.20;;;;;;;1.85;71.25;96591.28;6170558;28;20230;-82
2022/04/02 14:14:25;;;;;;;15.93;10.80;;;;;;;1.77;72.48;96596.13;6167293;28;20418;-81
2022/04/02 14:17:30;;;;;;;13.67;11.00;;;;;;;1.72;71.81;96592.97;6185614;28;20229;-82
2022/04/02 14:20:32;;;;;;;14.57;10.97;;;;;;;1.70;72.41;96595.66;6184725;28;20225;-81
2022/04/02 14:24:18;;;;;;;14.20;11.20;;;;;;;1.74;73.05;96602.34;6181930;28;20253;-82
2022/04/02 14:27:54;;;;;;;13.47;10.63;;;;;;;1.69;73.29;96601.81;6154987;28;20371;-84
2022/04/02 14:31:21;;;;;;;13.37;10.87;;;;;;;1.51;73.16;96600.34;6180394;28;20217;-82
2022/04/02 14:34:50;;;;;;;15.40;10.83;;;;;;;1.41;73.90;96615.66;6165621;28;20708;-81
2022/04/02 14:38:11;;;;;;;13.10;11.07;;;;;;;1.29;74.32;96613.84;6182746;28;20233;-82
2022/04/02 14:41:36;;;;;;;12.67;10.90;;;;;;;1.22;74.55;96617.72;6179925;28;20225;-82
2022/04/02 14:45:09;;;;;;;14.00;11.97;;;;;;;1.06;75.74;96616.97;6170714;28;20724;-82
2022/04/02 14:48:38;;;;;;;15.23;12.40;;;;;;;0.99;75.88;96619.09;6157721;28;20230;-82
2022/04/02 14:52:08;;;;;;;17.80;13.57;;;;;;;0.95;76.25;96620.19;6182905;28;20229;-81